< < Back
Terminal Aerodrome Forecast


Current Version              Previous Versions:   1  2  3  4  5  6  7  8  9  

Terminal Aerodrome Forecast

646
FTUS42 KGSP 262339
TAFAND
TAF
KAND 262339Z 2700/2724 23005KT P6SM FEW070 SCT120
     FM270700 VRB02KT P6SM FEW220
     FM271500 25007KT P6SM SCT060
     FM272000 23011KT P6SM SCT060=



Latest METAR

404
SAUS70 KWBC 271100 RRH
MTRAND
METAR KAND 271056Z AUTO 20005KT 10SM CLR 24/21 A3004 RMK AO2 SLP159
T02440211


USA.gov is the U.S. government's official web portal to all federal, state and local government web resources and services.